Castlederg, United Kingdom
Current Conditions -  °F | °C
As of 3:20 PM on Thursday 23 Oct 2014 (Local Time) from EGAE Reporting Station
Light Rain Light Rain  
Wind Chill: 15°   Ceiling: 1500
Heat Index: 15°   Visibility: 6mi
Dew Point: 13°   Wind: 17mph
Humidity: 88%   Direction: 220°SW
Pressure: 29.71"   Gusts: NA
Location:  54.7°N, 7.6°W
Report Text: EGAE 231420Z 22015KT 9999 -RA FEW012 BKN015 15/13 Q1006
Loading
Personal Weather Stations






























Interactive Weather Map
Tropical Storm Tracking
New forecast layout! Learn more

10-Day Weather Forecast

Advertisements
Track Severe Weather on mobile